Time;durP1;ratioP1;P1;durP2;ratioP2;P2;SDS_P1;SDS_P2;PMS_P1;PMS_P2;Temp;Humidity;BMP_temperature;BMP_pressure;BME280_temperature;BME280_humidity;BME280_pressure;Samples;Min_cycle;Max_cycle;Signal;HPM_P1;HPM_P2
2024/03/08 00:00:12;;;;;;;22.93;15.37;;;8.90;94.30;;;;;;5069377;28;20223;-60
2024/03/08 00:02:41;;;;;;;24.20;15.53;;;8.90;94.40;;;;;;5071683;28;20258;-61
2024/03/08 00:05:09;;;;;;;28.90;15.23;;;8.90;94.40;;;;;;5070299;28;20219;-61
2024/03/08 00:07:37;;;;;;;25.77;15.57;;;8.90;94.40;;;;;;5072410;28;20271;-60
2024/03/08 00:10:05;;;;;;;26.57;15.50;;;8.90;94.50;;;;;;5070313;28;20550;-61
2024/03/08 00:12:32;;;;;;;25.83;15.43;;;8.90;94.50;;;;;;5070563;28;20236;-61
2024/03/08 00:14:59;;;;;;;24.77;15.03;;;9.00;94.60;;;;;;5070339;28;20355;-61
2024/03/08 00:17:27;;;;;;;23.07;14.10;;;9.00;94.70;;;;;;5070335;28;20261;-61
2024/03/08 00:19:54;;;;;;;24.83;15.07;;;9.00;94.70;;;;;;5068293;28;20215;-61
2024/03/08 00:22:22;;;;;;;23.33;14.70;;;9.00;94.70;;;;;;5071975;28;20193;-61
2024/03/08 00:24:50;;;;;;;27.83;16.07;;;9.00;94.80;;;;;;5069680;28;20200;-61
2024/03/08 00:27:20;;;;;;;28.13;16.27;;;9.10;94.90;;;;;;5070739;28;20208;-61
2024/03/08 00:29:48;;;;;;;24.40;14.63;;;9.10;94.90;;;;;;5069145;28;20200;-60
2024/03/08 00:32:17;;;;;;;25.90;14.83;;;9.10;95.00;;;;;;5071916;28;20231;-60
2024/03/08 00:34:44;;;;;;;21.27;14.17;;;9.20;95.00;;;;;;5071002;28;20278;-61
2024/03/08 00:37:11;;;;;;;22.07;14.20;;;9.20;95.00;;;;;;5072062;28;20208;-61
2024/03/08 00:39:38;;;;;;;20.27;13.90;;;9.30;95.00;;;;;;5071235;28;20235;-61
2024/03/08 00:42:05;;;;;;;23.57;14.87;;;9.20;95.00;;;;;;5071459;28;20193;-61
2024/03/08 00:44:32;;;;;;;20.47;14.10;;;9.30;95.10;;;;;;5072398;28;20292;-61
2024/03/08 00:47:00;;;;;;;23.43;14.77;;;9.30;95.10;;;;;;5067460;28;20233;-61
2024/03/08 00:49:27;;;;;;;20.03;14.10;;;9.30;95.20;;;;;;5071259;28;20601;-61
2024/03/08 00:51:54;;;;;;;26.70;15.10;;;9.40;95.30;;;;;;5068256;28;20210;-61
2024/03/08 00:54:21;;;;;;;25.77;15.10;;;9.30;95.30;;;;;;5070072;28;20214;-61
2024/03/08 00:56:48;;;;;;;22.13;15.10;;;9.30;95.40;;;;;;5070475;28;20275;-61
2024/03/08 00:59:15;;;;;;;21.67;14.53;;;9.30;95.40;;;;;;5069995;28;20256;-60
2024/03/08 01:01:43;;;;;;;25.63;15.13;;;9.30;95.40;;;;;;5069979;28;20216;-61
2024/03/08 01:04:11;;;;;;;23.13;15.17;;;9.30;95.50;;;;;;5069482;28;20213;-61
2024/03/08 01:06:38;;;;;;;22.43;15.10;;;9.30;95.60;;;;;;5071052;28;20208;-61
2024/03/08 01:09:07;;;;;;;21.97;14.90;;;9.30;95.70;;;;;;5069956;28;20200;-61
2024/03/08 01:11:34;;;;;;;24.60;15.33;;;9.30;95.70;;;;;;5069196;28;20545;-61
2024/03/08 01:14:01;;;;;;;29.10;15.50;;;9.30;95.70;;;;;;5069157;28;20282;-61
2024/03/08 01:16:28;;;;;;;23.70;15.27;;;9.30;95.80;;;;;;5075028;28;20196;-61
2024/03/08 01:18:55;;;;;;;25.07;14.77;;;9.30;95.90;;;;;;5075468;28;20292;-61
2024/03/08 01:21:23;;;;;;;24.27;15.77;;;9.30;95.90;;;;;;5073151;28;20197;-61
2024/03/08 01:23:50;;;;;;;25.13;15.23;;;9.30;95.90;;;;;;5075624;28;20208;-61
2024/03/08 01:26:17;;;;;;;21.50;15.30;;;9.30;96.20;;;;;;5073810;28;20197;-61
2024/03/08 01:28:44;;;;;;;22.83;14.13;;;9.30;95.90;;;;;;5075218;28;20228;-61
2024/03/08 01:31:12;;;;;;;24.17;14.13;;;9.30;95.90;;;;;;5074085;28;20208;-61
2024/03/08 01:33:40;;;;;;;22.17;14.27;;;9.40;96.00;;;;;;5070596;28;20552;-61
2024/03/08 01:36:07;;;;;;;24.43;14.90;;;9.30;95.90;;;;;;5073592;28;20199;-61
2024/03/08 01:38:35;;;;;;;25.90;13.97;;;9.30;95.90;;;;;;5073141;28;20228;-61
2024/03/08 01:41:04;;;;;;;24.90;14.90;;;9.30;95.70;;;;;;5071454;28;20207;-61
2024/03/08 01:43:31;;;;;;;26.43;15.57;;;9.30;95.80;;;;;;5072979;28;20321;-61
2024/03/08 01:45:59;;;;;;;27.50;14.40;;;9.30;95.90;;;;;;5075050;28;20256;-61
2024/03/08 01:48:29;;;;;;;24.77;14.90;;;9.30;96.10;;;;;;5072349;28;20205;-61
2024/03/08 01:51:00;;;;;;;23.77;15.27;;;9.20;96.20;;;;;;5071320;28;20276;-61
2024/03/08 01:53:29;;;;;;;23.63;15.07;;;9.20;96.30;;;;;;5071187;28;20282;-61
2024/03/08 01:55:58;;;;;;;21.57;14.10;;;9.20;96.50;;;;;;5068303;28;20200;-61
2024/03/08 01:58:28;;;;;;;20.33;13.93;;;9.10;96.90;;;;;;5071795;28;20196;-61
2024/03/08 02:00:59;;;;;;;20.90;13.17;;;9.10;97.30;;;;;;5074207;28;20197;-61
2024/03/08 02:03:27;;;;;;;21.53;14.20;;;9.10;97.60;;;;;;5068327;28;20630;-61
2024/03/08 02:05:54;;;;;;;18.00;12.93;;;9.10;98.00;;;;;;5073977;28;20209;-61
2024/03/08 02:08:22;;;;;;;22.40;13.63;;;9.10;98.10;;;;;;5071646;28;20196;-61
2024/03/08 02:10:50;;;;;;;18.70;13.50;;;9.10;98.30;;;;;;5070180;28;20257;-61
2024/03/08 02:13:18;;;;;;;19.10;14.03;;;9.10;98.50;;;;;;5073046;28;20259;-61
2024/03/08 02:15:52;;;;;;;23.53;14.47;;;9.10;98.60;;;;;;5074515;28;20254;-61
2024/03/08 02:18:20;;;;;;;20.53;13.57;;;9.10;98.80;;;;;;5072710;28;20247;-61
2024/03/08 02:20:49;;;;;;;21.37;13.50;;;9.10;98.90;;;;;;5073182;28;20200;-61
2024/03/08 02:23:17;;;;;;;25.37;14.13;;;9.10;99.00;;;;;;5070912;28;20308;-61
2024/03/08 02:25:44;;;;;;;20.57;13.37;;;9.10;99.00;;;;;;5071996;28;20207;-61
2024/03/08 02:28:12;;;;;;;24.07;15.17;;;9.10;99.10;;;;;;5072196;28;20200;-61
2024/03/08 02:30:39;;;;;;;24.33;15.17;;;9.10;99.20;;;;;;5071756;28;20205;-61
2024/03/08 02:33:09;;;;;;;25.77;14.67;;;9.10;99.30;;;;;;5072635;28;20203;-61
2024/03/08 02:35:36;;;;;;;22.67;15.33;;;9.10;99.40;;;;;;5073831;28;20215;-61
2024/03/08 02:38:04;;;;;;;22.93;15.43;;;9.10;99.50;;;;;;5088593;28;20547;-61
2024/03/08 02:40:32;;;;;;;22.97;14.53;;;9.10;99.50;;;;;;5073444;28;20254;-61
2024/03/08 02:42:59;;;;;;;23.23;14.37;;;9.10;99.50;;;;;;5067772;28;20302;-61
2024/03/08 02:45:26;;;;;;;21.37;14.17;;;9.10;99.50;;;;;;5073117;28;20204;-61
2024/03/08 02:47:53;;;;;;;20.53;14.00;;;9.10;99.60;;;;;;5072236;28;20202;-61
2024/03/08 02:50:22;;;;;;;24.20;14.87;;;9.10;99.60;;;;;;5071538;28;20197;-61
2024/03/08 02:52:49;;;;;;;26.83;15.87;;;9.10;99.60;;;;;;5069371;28;20292;-61
2024/03/08 02:55:16;;;;;;;25.73;16.17;;;9.00;99.60;;;;;;5072946;28;20215;-61
2024/03/08 02:57:43;;;;;;;23.93;15.70;;;9.00;99.70;;;;;;5070547;28;20219;-61
2024/03/08 03:00:11;;;;;;;22.47;15.50;;;9.00;99.70;;;;;;5071511;28;20244;-61
2024/03/08 03:02:38;;;;;;;26.43;16.13;;;9.00;99.80;;;;;;5071396;28;20196;-61
2024/03/08 03:05:06;;;;;;;24.97;16.67;;;9.00;99.80;;;;;;5072901;28;20615;-61
2024/03/08 03:07:33;;;;;;;27.53;16.40;;;9.00;99.90;;;;;;5072882;28;20204;-61
2024/03/08 03:10:01;;;;;;;24.40;16.87;;;9.00;99.90;;;;;;5071262;28;20188;-61
2024/03/08 03:12:29;;;;;;;21.20;14.47;;;9.00;99.90;;;;;;5068543;28;20204;-61
2024/03/08 03:14:57;;;;;;;27.77;16.30;;;8.90;99.90;;;;;;5071709;28;20216;-61
2024/03/08 03:17:27;;;;;;;23.23;16.13;;;8.90;99.90;;;;;;5070008;28;20197;-61
2024/03/08 03:19:55;;;;;;;22.20;15.57;;;8.90;99.90;;;;;;5072251;28;20212;-61
2024/03/08 03:22:23;;;;;;;25.10;16.40;;;8.90;99.90;;;;;;5070997;28;20199;-61
2024/03/08 03:24:51;;;;;;;19.83;14.80;;;8.90;99.90;;;;;;5071355;28;20522;-61
2024/03/08 03:27:20;;;;;;;24.87;15.10;;;8.90;99.90;;;;;;5068004;28;20211;-61
2024/03/08 03:29:47;;;;;;;25.40;14.97;;;8.80;99.90;;;;;;5069894;28;20202;-61
2024/03/08 03:32:14;;;;;;;22.23;15.17;;;8.80;99.90;;;;;;5071534;28;20613;-61
2024/03/08 03:34:43;;;;;;;22.70;15.50;;;8.80;99.90;;;;;;5072285;28;20311;-62
2024/03/08 03:37:13;;;;;;;24.83;15.03;;;8.80;99.90;;;;;;5071574;28;20208;-61
2024/03/08 03:39:51;;;;;;;21.80;14.07;;;8.80;99.90;;;;;;5073288;28;20284;-61
2024/03/08 03:42:19;;;;;;;24.83;15.47;;;8.70;99.90;;;;;;5069435;28;20199;-61
2024/03/08 03:44:47;;;;;;;29.83;16.13;;;8.70;99.90;;;;;;5073670;28;20620;-61
2024/03/08 03:47:15;;;;;;;22.67;15.60;;;8.70;99.90;;;;;;5073292;28;20202;-61
2024/03/08 03:49:43;;;;;;;21.70;14.63;;;8.70;99.90;;;;;;5070424;28;20213;-61
2024/03/08 03:52:10;;;;;;;21.90;14.40;;;8.60;99.90;;;;;;5072435;28;20238;-61
2024/03/08 03:54:37;;;;;;;22.27;15.20;;;8.60;99.90;;;;;;5070730;28;20227;-61
2024/03/08 03:57:04;;;;;;;22.17;14.77;;;8.60;99.90;;;;;;5072489;28;20194;-61
2024/03/08 03:59:32;;;;;;;18.70;14.07;;;8.60;99.90;;;;;;5068606;28;20242;-61
2024/03/08 04:01:59;;;;;;;23.03;14.90;;;8.60;99.90;;;;;;5087270;28;20230;-61
2024/03/08 04:04:26;;;;;;;25.07;15.40;;;8.60;99.90;;;;;;5071625;28;20207;-61
2024/03/08 04:06:53;;;;;;;24.10;15.17;;;8.60;99.90;;;;;;5072867;28;20199;-61
2024/03/08 04:09:22;;;;;;;24.40;14.43;;;8.60;99.90;;;;;;5087520;28;20505;-61
2024/03/08 04:11:52;;;;;;;21.83;14.50;;;8.60;99.90;;;;;;5070517;28;20637;-61
2024/03/08 04:14:20;;;;;;;21.20;14.93;;;8.60;99.90;;;;;;5072050;28;20225;-61
2024/03/08 04:16:48;;;;;;;20.50;14.37;;;8.60;99.90;;;;;;5073891;28;20203;-61
2024/03/08 04:19:15;;;;;;;22.80;13.77;;;8.60;99.90;;;;;;5072872;28;20192;-61
2024/03/08 04:21:42;;;;;;;21.27;13.67;;;8.60;99.90;;;;;;5072923;28;20671;-61
2024/03/08 04:24:10;;;;;;;22.20;14.80;;;8.60;99.90;;;;;;5072708;28;20206;-61
2024/03/08 04:26:37;;;;;;;20.63;14.30;;;8.60;99.90;;;;;;5072585;28;20220;-61
2024/03/08 04:29:05;;;;;;;20.70;13.27;;;8.60;99.90;;;;;;5069532;28;20201;-61
2024/03/08 04:31:32;;;;;;;19.67;12.83;;;8.60;99.90;;;;;;5071123;28;20634;-61
2024/03/08 04:33:59;;;;;;;18.47;12.80;;;8.60;99.90;;;;;;5070088;28;20279;-61
2024/03/08 04:36:26;;;;;;;20.17;13.03;;;8.60;99.90;;;;;;5072773;28;20262;-61
2024/03/08 04:38:53;;;;;;;19.63;13.80;;;8.50;99.90;;;;;;5071428;28;20236;-62
2024/03/08 04:41:21;;;;;;;19.70;12.67;;;8.50;99.90;;;;;;5073432;28;20207;-61
2024/03/08 04:43:48;;;;;;;19.83;12.90;;;8.50;99.90;;;;;;5071585;28;20629;-61
2024/03/08 04:46:16;;;;;;;23.00;14.57;;;8.50;99.90;;;;;;5072138;28;20527;-61
2024/03/08 04:48:43;;;;;;;21.70;15.43;;;8.50;99.90;;;;;;5070613;28;20218;-61
2024/03/08 04:51:11;;;;;;;22.43;14.87;;;8.50;99.90;;;;;;5072472;28;20294;-62
2024/03/08 04:53:38;;;;;;;23.10;14.13;;;8.50;99.90;;;;;;5076130;28;20203;-61
2024/03/08 04:56:07;;;;;;;24.03;14.63;;;8.50;99.90;;;;;;5076186;28;20555;-62
2024/03/08 04:58:37;;;;;;;20.03;13.30;;;8.50;99.90;;;;;;5075473;28;20223;-61
2024/03/08 05:01:04;;;;;;;22.20;14.57;;;8.50;99.90;;;;;;5074698;28;20213;-61
2024/03/08 05:03:31;;;;;;;20.00;13.90;;;8.50;99.90;;;;;;5074646;28;20204;-61
2024/03/08 05:05:58;;;;;;;19.87;12.47;;;8.40;99.90;;;;;;5075339;28;20200;-61
2024/03/08 05:08:25;;;;;;;22.60;14.17;;;8.40;99.90;;;;;;5076747;28;20198;-61
2024/03/08 05:10:53;;;;;;;18.90;12.67;;;8.40;99.90;;;;;;5075151;28;20205;-61
2024/03/08 05:13:20;;;;;;;19.87;14.00;;;8.40;99.90;;;;;;5086048;28;20199;-61
2024/03/08 05:15:50;;;;;;;21.37;14.60;;;8.40;99.90;;;;;;5075218;28;20569;-61
2024/03/08 05:18:17;;;;;;;25.40;15.47;;;8.40;99.90;;;;;;5076089;28;20206;-61
2024/03/08 05:20:45;;;;;;;21.73;15.17;;;8.40;99.90;;;;;;5071014;28;20198;-61
2024/03/08 05:23:12;;;;;;;25.30;15.63;;;8.30;99.90;;;;;;5076978;28;20660;-61
2024/03/08 05:25:39;;;;;;;24.70;15.30;;;8.30;99.90;;;;;;5071302;28;20194;-61
2024/03/08 05:28:06;;;;;;;23.70;15.77;;;8.20;99.90;;;;;;5077104;28;20215;-61
2024/03/08 05:30:35;;;;;;;28.03;16.70;;;8.30;99.90;;;;;;5074777;28;20221;-61
2024/03/08 05:33:03;;;;;;;23.03;16.43;;;8.20;99.90;;;;;;5076550;28;20222;-63
2024/03/08 05:35:32;;;;;;;24.63;16.23;;;8.30;99.90;;;;;;5074639;28;20224;-61
2024/03/08 05:37:59;;;;;;;25.13;16.33;;;8.20;99.90;;;;;;5073069;28;20240;-61
2024/03/08 05:40:27;;;;;;;24.00;16.37;;;8.30;99.90;;;;;;5074291;28;20231;-61
2024/03/08 05:42:54;;;;;;;25.53;15.73;;;8.30;99.90;;;;;;5074800;28;20629;-61
2024/03/08 05:45:21;;;;;;;26.80;16.30;;;8.30;99.90;;;;;;5072949;28;20634;-61
2024/03/08 05:47:48;;;;;;;29.20;16.57;;;8.30;99.90;;;;;;5079150;28;20215;-61
2024/03/08 05:50:16;;;;;;;27.63;17.37;;;8.30;99.90;;;;;;5074580;28;20208;-61
2024/03/08 05:52:43;;;;;;;27.03;16.47;;;8.40;99.90;;;;;;5074571;28;20202;-62
2024/03/08 05:55:11;;;;;;;26.37;15.40;;;8.40;99.90;;;;;;5081143;28;20217;-61
2024/03/08 05:57:39;;;;;;;24.53;15.13;;;8.30;99.90;;;;;;5075787;28;20561;-61
2024/03/08 06:00:08;;;;;;;20.97;14.40;;;8.40;99.90;;;;;;5091822;28;20531;-61
2024/03/08 06:02:40;;;;;;;24.00;16.17;;;8.40;99.90;;;;;;5072367;28;20228;-61
2024/03/08 06:05:10;;;;;;;25.17;16.23;;;8.40;99.90;;;;;;5073156;28;20210;-61
2024/03/08 06:07:40;;;;;;;28.97;17.03;;;8.40;99.90;;;;;;5055415;28;20200;-61
2024/03/08 06:10:10;;;;;;;29.03;17.70;;;8.40;99.90;;;;;;5074765;28;20294;-61
2024/03/08 06:12:41;;;;;;;27.83;16.87;;;8.50;99.90;;;;;;5066556;28;20217;-61
2024/03/08 06:15:10;;;;;;;20.33;13.73;;;8.50;99.90;;;;;;5073944;28;20223;-61
2024/03/08 06:17:37;;;;;;;20.43;14.70;;;8.60;99.90;;;;;;5069797;28;20679;-62
2024/03/08 06:20:10;;;;;;;25.10;16.97;;;8.60;99.90;;;;;;5079436;28;20210;-61
2024/03/08 06:22:40;;;;;;;26.20;16.40;;;8.60;99.90;;;;;;5073251;28;20647;-62
2024/03/08 06:25:08;;;;;;;26.67;16.60;;;8.60;99.90;;;;;;5074016;28;20203;-61
2024/03/08 06:27:35;;;;;;;25.37;17.67;;;8.70;99.90;;;;;;5074572;28;20227;-61
2024/03/08 06:30:04;;;;;;;23.80;15.53;;;8.80;99.90;;;;;;5073154;28;20210;-61
2024/03/08 06:32:35;;;;;;;28.13;16.40;;;8.90;99.90;;;;;;5073625;28;20203;-61
2024/03/08 06:35:06;;;;;;;27.60;17.63;;;8.90;99.90;;;;;;5071332;28;20732;-61
2024/03/08 06:37:33;;;;;;;28.53;17.50;;;9.10;99.90;;;;;;5071077;28;20210;-61
2024/03/08 06:40:03;;;;;;;27.03;16.63;;;9.20;99.90;;;;;;5074213;28;20203;-61
2024/03/08 06:42:34;;;;;;;29.70;16.10;;;9.20;99.90;;;;;;5074121;28;20204;-61
2024/03/08 06:45:06;;;;;;;30.20;18.60;;;9.30;99.90;;;;;;5073341;28;20223;-61
2024/03/08 06:47:34;;;;;;;28.30;18.27;;;9.40;99.90;;;;;;5073656;28;20202;-61
2024/03/08 06:50:01;;;;;;;31.30;17.03;;;9.50;99.90;;;;;;5073869;28;20204;-61
2024/03/08 06:52:29;;;;;;;30.17;19.13;;;9.50;99.90;;;;;;5084749;28;20272;-62
2024/03/08 06:54:57;;;;;;;29.80;19.43;;;9.60;99.90;;;;;;5074501;28;20200;-61
2024/03/08 06:57:24;;;;;;;29.57;19.17;;;9.60;99.90;;;;;;5074735;28;20201;-61
2024/03/08 06:59:52;;;;;;;28.53;18.43;;;9.70;99.90;;;;;;5069817;28;20293;-60
2024/03/08 07:02:21;;;;;;;30.20;18.37;;;9.70;99.90;;;;;;5071232;28;20525;-61
2024/03/08 07:04:52;;;;;;;29.60;18.93;;;9.70;99.90;;;;;;5074051;28;20205;-60
2024/03/08 07:07:20;;;;;;;26.80;18.63;;;9.80;99.90;;;;;;5075154;28;20204;-60
2024/03/08 07:09:49;;;;;;;27.40;17.57;;;9.80;99.90;;;;;;5072787;28;20216;-61
2024/03/08 07:12:17;;;;;;;25.17;16.63;;;9.80;99.90;;;;;;5073902;28;20250;-60
2024/03/08 07:14:45;;;;;;;21.87;16.03;;;9.80;99.90;;;;;;5072424;28;20215;-61
2024/03/08 07:17:13;;;;;;;23.30;15.70;;;9.90;99.90;;;;;;5075386;28;20238;-61
2024/03/08 07:19:40;;;;;;;23.67;15.33;;;9.90;99.90;;;;;;5071701;28;20281;-61
2024/03/08 07:22:08;;;;;;;23.03;14.53;;;9.90;99.90;;;;;;5072530;28;20225;-61
2024/03/08 07:27:22;;;;;;;25.70;15.70;;;10.00;99.90;;;;;;5070961;28;20190;-60
2024/03/08 07:29:49;;;;;;;23.00;14.53;;;10.00;99.90;;;;;;5072300;28;20207;-61
2024/03/08 07:32:21;;;;;;;21.37;14.53;;;10.10;99.90;;;;;;5074417;28;20196;-61
2024/03/08 07:34:50;;;;;;;22.90;15.20;;;10.10;99.90;;;;;;5071327;28;20204;-61
2024/03/08 07:37:19;;;;;;;20.20;14.07;;;10.20;99.90;;;;;;5073332;28;20250;-61
2024/03/08 07:39:46;;;;;;;18.07;13.77;;;10.20;99.90;;;;;;5073896;28;20292;-61
2024/03/08 07:42:13;;;;;;;23.73;16.00;;;10.30;99.80;;;;;;5072012;28;20282;-61
2024/03/08 07:44:40;;;;;;;23.27;16.77;;;10.40;99.70;;;;;;5070840;28;20655;-61
2024/03/08 07:47:09;;;;;;;20.70;14.27;;;10.50;99.60;;;;;;5072267;28;20201;-61
2024/03/08 07:49:39;;;;;;;24.13;14.70;;;10.60;99.60;;;;;;5071845;28;20218;-61
2024/03/08 07:52:07;;;;;;;18.80;13.63;;;10.60;99.50;;;;;;5072670;28;20288;-61
2024/03/08 07:54:37;;;;;;;19.10;14.23;;;10.70;99.60;;;;;;5068283;28;20204;-62
2024/03/08 07:57:04;;;;;;;22.33;14.63;;;10.80;99.60;;;;;;5071163;28;20239;-61
2024/03/08 07:59:31;;;;;;;17.83;12.77;;;10.90;99.60;;;;;;5068922;28;20240;-61
2024/03/08 08:01:59;;;;;;;19.23;12.37;;;11.00;99.50;;;;;;5078315;28;20308;-62
2024/03/08 08:04:27;;;;;;;17.23;12.90;;;11.10;99.40;;;;;;5070795;28;20204;-61
2024/03/08 08:06:54;;;;;;;19.67;13.30;;;11.20;99.50;;;;;;5070042;28;20246;-61
2024/03/08 08:09:28;;;;;;;18.57;12.80;;;11.30;99.40;;;;;;5072257;28;20228;-62
2024/03/08 08:11:55;;;;;;;15.53;11.70;;;11.40;99.50;;;;;;5071059;28;20225;-61
2024/03/08 08:14:23;;;;;;;16.33;12.27;;;11.50;99.30;;;;;;5071595;28;20261;-61
2024/03/08 08:16:52;;;;;;;17.80;10.93;;;11.60;99.10;;;;;;5068346;28;20340;-61
2024/03/08 08:19:20;;;;;;;18.27;11.93;;;11.60;99.20;;;;;;5070480;28;20197;-61
2024/03/08 08:21:48;;;;;;;18.10;10.97;;;11.70;99.40;;;;;;5071543;28;20213;-61
2024/03/08 08:24:15;;;;;;;12.73;9.53;;;11.80;99.30;;;;;;5067843;28;20208;-62
2024/03/08 08:26:44;;;;;;;10.17;9.13;;;11.90;99.30;;;;;;5071880;28;20223;-60
2024/03/08 08:29:11;;;;;;;9.13;8.00;;;11.90;99.50;;;;;;5071545;28;20296;-61
2024/03/08 08:31:38;;;;;;;10.33;8.63;;;12.00;99.50;;;;;;5070319;28;20326;-61
2024/03/08 08:34:06;;;;;;;14.37;8.97;;;12.10;99.20;;;;;;5070800;28;20194;-60
2024/03/08 08:36:34;;;;;;;17.10;10.27;;;12.20;99.30;;;;;;5067763;28;20234;-61
2024/03/08 08:39:03;;;;;;;13.07;9.10;;;12.30;99.50;;;;;;5072145;28;20559;-61
2024/03/08 08:41:30;;;;;;;12.20;9.90;;;12.50;99.40;;;;;;5067859;28;20229;-60
2024/03/08 08:43:57;;;;;;;12.10;9.93;;;12.70;99.40;;;;;;5072497;28;20200;-63
2024/03/08 08:46:41;;;;;;;11.43;8.43;;;13.00;99.50;;;;;;5069905;28;20199;-61
2024/03/08 08:49:10;;;;;;;12.93;8.80;;;13.20;98.60;;;;;;5069986;28;20266;-61
2024/03/08 08:51:38;;;;;;;9.83;8.23;;;13.40;97.40;;;;;;5070592;28;20218;-61
2024/03/08 08:54:09;;;;;;;13.00;7.97;;;13.50;97.20;;;;;;5069210;28;20223;-62
2024/03/08 08:56:39;;;;;;;10.90;8.30;;;13.50;97.00;;;;;;5070032;28;20296;-61
2024/03/08 08:59:07;;;;;;;11.30;8.80;;;13.50;96.70;;;;;;5071355;28;20242;-62
2024/03/08 09:01:34;;;;;;;10.90;7.40;;;13.40;96.70;;;;;;5070332;28;20230;-60
2024/03/08 09:04:01;;;;;;;15.40;8.03;;;13.40;96.30;;;;;;5069147;28;20197;-62
2024/03/08 09:06:29;;;;;;;11.63;7.93;;;13.30;96.60;;;;;;5071711;28;20663;-59
2024/03/08 09:08:57;;;;;;;9.23;7.03;;;13.30;96.40;;;;;;5069494;28;20524;-60
2024/03/08 09:11:27;;;;;;;9.00;6.40;;;13.20;96.30;;;;;;5071423;28;20216;-60
2024/03/08 09:13:54;;;;;;;12.63;7.20;;;13.10;96.10;;;;;;5070836;28;20232;-59
2024/03/08 09:16:22;;;;;;;11.37;7.53;;;13.00;96.40;;;;;;5071133;28;20205;-60
2024/03/08 09:18:49;;;;;;;9.80;7.13;;;13.10;96.80;;;;;;5071236;28;20230;-61
2024/03/08 09:21:17;;;;;;;8.87;6.70;;;13.20;96.70;;;;;;5068875;28;20211;-61
2024/03/08 09:23:46;;;;;;;11.57;7.70;;;13.30;96.70;;;;;;5070984;28;20198;-60
2024/03/08 09:26:15;;;;;;;8.10;6.60;;;13.40;96.00;;;;;;5071031;28;20259;-60
2024/03/08 09:28:57;;;;;;;8.93;7.20;;;13.40;95.60;;;;;;5069377;28;20200;-63
2024/03/08 09:31:25;;;;;;;7.93;6.90;;;13.30;95.40;;;;;;5065834;28;20208;-60
2024/03/08 09:33:52;;;;;;;7.87;6.67;;;13.20;95.70;;;;;;5067298;28;20677;-61
2024/03/08 09:36:20;;;;;;;8.57;7.30;;;13.20;95.60;;;;;;5070935;28;20214;-61
2024/03/08 09:38:48;;;;;;;9.53;6.83;;;13.10;95.60;;;;;;5073803;28;20206;-63
2024/03/08 09:41:15;;;;;;;9.13;6.67;;;13.00;95.30;;;;;;5071058;28;20202;-63
2024/03/08 09:43:43;;;;;;;8.23;6.93;;;13.00;95.90;;;;;;5073361;28;20654;-61
2024/03/08 09:46:11;;;;;;;7.43;6.50;;;12.90;96.10;;;;;;5073718;28;20270;-62
2024/03/08 09:48:41;;;;;;;11.80;6.43;;;13.00;95.90;;;;;;5074242;28;20206;-61
2024/03/08 09:51:08;;;;;;;6.97;6.20;;;13.00;96.00;;;;;;5073258;28;20670;-62
2024/03/08 09:53:36;;;;;;;8.27;6.10;;;13.00;96.00;;;;;;5071895;28;20211;-64
2024/03/08 09:56:04;;;;;;;9.10;7.87;;;13.10;95.80;;;;;;5072906;28;20273;-63
2024/03/08 10:01:02;;;;;;;9.83;7.67;;;13.20;96.10;;;;;;5072999;28;20208;-61
2024/03/08 10:03:29;;;;;;;10.00;6.00;;;13.30;96.10;;;;;;5073125;28;20274;-62
2024/03/08 10:06:03;;;;;;;7.00;5.73;;;13.40;95.80;;;;;;5074291;28;20201;-62
2024/03/08 10:08:30;;;;;;;13.13;5.83;;;13.50;95.60;;;;;;5071181;28;20208;-59
2024/03/08 10:11:01;;;;;;;7.73;6.00;;;13.60;95.30;;;;;;5073499;28;20607;-61
2024/03/08 10:13:30;;;;;;;10.87;6.40;;;13.60;95.20;;;;;;5074527;28;20193;-61
2024/03/08 10:15:57;;;;;;;8.60;6.33;;;13.60;94.90;;;;;;5072361;28;20248;-60
2024/03/08 10:18:24;;;;;;;8.53;6.67;;;13.70;94.90;;;;;;5073982;28;20623;-61
2024/03/08 10:21:10;;;;;;;7.37;6.50;;;13.70;94.60;;;;;;5072064;28;20208;-63
2024/03/08 10:23:39;;;;;;;8.47;6.50;;;13.70;94.40;;;;;;5072631;28;20209;-61
2024/03/08 10:26:10;;;;;;;7.90;6.37;;;13.50;94.30;;;;;;5073607;28;20291;-61
2024/03/08 10:28:38;;;;;;;8.47;6.50;;;13.50;94.50;;;;;;5072367;28;20193;-59
2024/03/08 10:31:05;;;;;;;10.10;6.90;;;13.40;94.40;;;;;;5073817;28;20217;-59
2024/03/08 10:33:33;;;;;;;9.73;7.10;;;13.40;94.80;;;;;;5069142;28;20289;-60
2024/03/08 10:36:00;;;;;;;13.87;7.00;;;13.40;94.90;;;;;;5072888;28;20224;-59
2024/03/08 10:38:32;;;;;;;7.50;6.30;;;13.40;94.70;;;;;;5072321;28;20255;-61
2024/03/08 10:41:01;;;;;;;8.20;6.50;;;13.40;94.80;;;;;;5073694;28;20208;-61
2024/03/08 10:43:37;;;;;;;10.40;6.07;;;13.40;94.70;;;;;;5073231;28;20209;-60
2024/03/08 10:46:35;;;;;;;8.67;6.67;;;13.40;94.60;;;;;;5071851;28;20276;-60
2024/03/08 10:49:06;;;;;;;8.90;6.57;;;13.40;94.70;;;;;;5072461;28;20304;-60
2024/03/08 10:51:34;;;;;;;10.23;6.20;;;13.40;94.80;;;;;;5070610;28;20203;-60
2024/03/08 10:54:03;;;;;;;8.77;6.90;;;13.40;94.70;;;;;;5074022;28;20662;-61
2024/03/08 10:56:30;;;;;;;10.10;6.50;;;13.50;94.80;;;;;;5072589;28;20300;-60
2024/03/08 10:58:57;;;;;;;11.03;6.33;;;13.70;95.10;;;;;;5072986;28;20233;-60
2024/03/08 11:01:26;;;;;;;11.47;6.80;;;13.90;94.90;;;;;;5070947;28;20444;-60
2024/03/08 11:03:53;;;;;;;9.93;6.87;;;14.00;94.90;;;;;;5071664;28;20212;-60
2024/03/08 11:06:41;;;;;;;9.23;6.87;;;14.20;94.20;;;;;;5072714;28;20698;-60
2024/03/08 11:09:27;;;;;;;12.30;6.57;;;14.50;94.30;;;;;;5072754;28;20201;-60
2024/03/08 11:12:17;;;;;;;8.60;6.07;;;14.70;94.00;;;;;;5073607;28;20315;-60
2024/03/08 11:14:48;;;;;;;7.93;6.40;;;14.90;93.10;;;;;;5072561;28;20201;-58
2024/03/08 11:17:39;;;;;;;9.10;6.33;;;14.90;92.70;;;;;;5072218;28;20232;-60
2024/03/08 11:20:17;;;;;;;8.97;6.20;;;15.00;92.50;;;;;;5070533;28;20211;-61
2024/03/08 11:23:00;;;;;;;8.60;6.83;;;15.00;91.70;;;;;;5071928;28;20495;-59
2024/03/08 11:25:48;;;;;;;8.33;6.63;;;14.90;91.80;;;;;;5072024;28;20220;-60
2024/03/08 11:28:20;;;;;;;9.33;7.20;;;14.90;92.10;;;;;;5072137;28;20308;-60
2024/03/08 11:31:00;;;;;;;9.10;6.33;;;14.90;92.70;;;;;;5072225;28;20209;-60
2024/03/08 11:33:29;;;;;;;8.83;6.90;;;15.00;92.00;;;;;;5070057;28;20194;-60
2024/03/08 11:36:11;;;;;;;10.10;6.57;;;14.90;91.20;;;;;;5068527;28;20201;-59
2024/03/08 11:38:48;;;;;;;7.77;6.23;;;14.80;91.80;;;;;;5071427;28;20220;-61
2024/03/08 11:41:20;;;;;;;11.53;7.17;;;14.80;91.50;;;;;;5072985;28;20258;-60
2024/03/08 11:43:49;;;;;;;11.63;6.80;;;14.90;92.30;;;;;;5069834;28;20236;-61
2024/03/08 11:46:17;;;;;;;9.00;7.23;;;14.90;92.20;;;;;;5072935;28;20645;-60
2024/03/08 11:48:48;;;;;;;8.80;6.93;;;15.00;92.50;;;;;;5070501;28;20305;-59
2024/03/08 11:51:18;;;;;;;8.20;6.77;;;15.10;92.20;;;;;;5072298;28;20607;-59
2024/03/08 11:53:46;;;;;;;8.43;7.10;;;15.10;91.30;;;;;;5071052;28;20219;-59
2024/03/08 11:56:15;;;;;;;10.97;7.47;;;15.10;91.10;;;;;;5070725;28;20202;-58
2024/03/08 11:58:59;;;;;;;13.70;6.87;;;15.00;91.10;;;;;;5072217;28;20233;-61
2024/03/08 12:01:27;;;;;;;8.30;6.57;;;15.10;92.20;;;;;;5071085;28;20195;-60
2024/03/08 12:03:59;;;;;;;10.03;6.93;;;15.10;91.10;;;;;;5071564;28;20880;-60
2024/03/08 12:06:36;;;;;;;8.67;6.50;;;15.10;91.00;;;;;;5071278;28;20194;-59
2024/03/08 12:09:03;;;;;;;12.27;6.90;;;15.00;91.10;;;;;;5070325;28;20623;-59
2024/03/08 12:11:31;;;;;;;9.90;6.47;;;14.90;91.40;;;;;;5071633;28;20528;-59
2024/03/08 12:14:01;;;;;;;7.93;6.20;;;14.80;90.80;;;;;;5071974;28;20198;-59
2024/03/08 12:16:28;;;;;;;9.00;6.37;;;14.70;91.80;;;;;;5072160;28;20287;-59
2024/03/08 12:18:56;;;;;;;11.67;7.87;;;14.70;92.30;;;;;;5071413;28;20745;-58
2024/03/08 12:21:25;;;;;;;8.53;7.03;;;14.70;91.90;;;;;;5071988;28;20189;-59
2024/03/08 12:24:21;;;;;;;9.63;7.47;;;14.70;91.50;;;;;;5068970;28;20194;-60
2024/03/08 12:26:49;;;;;;;8.40;7.13;;;14.60;91.70;;;;;;5070463;28;20213;-59
2024/03/08 12:29:27;;;;;;;8.90;7.20;;;14.40;91.10;;;;;;5069528;28;20201;-60
2024/03/08 12:32:00;;;;;;;11.40;7.57;;;14.30;91.40;;;;;;5069171;28;20303;-59
2024/03/08 12:34:28;;;;;;;12.40;6.93;;;14.10;91.60;;;;;;5068069;28;20577;-60
2024/03/08 12:36:55;;;;;;;8.47;6.87;;;14.10;92.10;;;;;;5070152;28;20622;-59
2024/03/08 12:39:26;;;;;;;9.20;7.90;;;14.10;91.80;;;;;;5070487;28;20234;-59
2024/03/08 12:41:54;;;;;;;11.07;7.60;;;14.10;92.10;;;;;;5070810;28;20193;-59
2024/03/08 12:44:22;;;;;;;11.57;7.43;;;14.20;92.70;;;;;;5069734;28;20276;-60
2024/03/08 12:46:49;;;;;;;9.70;7.07;;;14.30;91.80;;;;;;5069950;28;20562;-60
2024/03/08 12:49:22;;;;;;;11.47;6.93;;;14.30;91.50;;;;;;5070765;28;20213;-60
2024/03/08 12:51:50;;;;;;;9.07;6.77;;;14.30;91.20;;;;;;5069321;28;20535;-59